Time;durP1;ratioP1;P1;durP2;ratioP2;P2;SDS_P1;SDS_P2;PMS_P1;PMS_P2;Temp;Humidity;BMP_temperature;BMP_pressure;BME280_temperature;BME280_humidity;BME280_pressure;Samples;Min_cycle;Max_cycle;Signal;HPM_P1;HPM_P2
2022/07/12 00:01:06;;;;;;;;;;;15.80;99.90;;;;;;5075768;28;19941;-82
2022/07/12 00:03:32;;;;;;;;;;;15.80;99.90;;;;;;5092887;28;19924;-82
2022/07/12 00:05:58;;;;;;;;;;;15.80;99.90;;;;;;5092593;28;19982;-83
2022/07/12 00:08:23;;;;;;;;;;;15.80;99.90;;;;;;5092390;28;20343;-82
2022/07/12 00:10:49;;;;;;;;;;;15.80;99.90;;;;;;5095578;28;19931;-83
2022/07/12 00:13:15;;;;;;;;;;;15.70;99.90;;;;;;5095840;28;19936;-82
2022/07/12 00:15:41;;;;;;;;;;;15.70;99.90;;;;;;5095912;28;19928;-82
2022/07/12 00:18:07;;;;;;;;;;;15.70;99.90;;;;;;5095699;28;19972;-82
2022/07/12 00:20:32;;;;;;;;;;;15.70;99.90;;;;;;5093870;28;19962;-82
2022/07/12 00:22:58;;;;;;;;;;;15.70;99.90;;;;;;5112445;28;19976;-83
2022/07/12 00:25:25;;;;;;;;;;;15.70;99.90;;;;;;5112688;28;20364;-82
2022/07/12 00:27:51;;;;;;;;;;;15.70;99.90;;;;;;5112298;28;19928;-82
2022/07/12 00:30:17;;;;;;;;;;;15.70;99.90;;;;;;5108383;28;19950;-82
2022/07/12 00:32:43;;;;;;;;;;;15.70;99.90;;;;;;5075722;28;19924;-82
2022/07/12 00:35:09;;;;;;;;;;;15.70;99.90;;;;;;5091967;28;19924;-82
2022/07/12 00:37:34;;;;;;;;;;;15.70;99.90;;;;;;5092337;28;19930;-82
2022/07/12 00:40:00;;;;;;;;;;;15.70;99.90;;;;;;5058687;28;19928;-83
2022/07/12 00:42:26;;;;;;;;;;;15.60;99.90;;;;;;5106150;28;20414;-82
2022/07/12 00:44:52;;;;;;;;;;;15.60;99.90;;;;;;5092403;28;19924;-82
2022/07/12 00:47:23;;;;;;;;;;;15.70;99.90;;;;;;5091659;28;20427;-82
2022/07/12 00:49:49;;;;;;;;;;;15.70;99.90;;;;;;5075495;28;19924;-82
2022/07/12 00:52:15;;;;;;;;;;;15.70;99.90;;;;;;5091820;28;20015;-83
2022/07/12 00:54:41;;;;;;;;;;;15.70;99.90;;;;;;5075407;28;19951;-83
2022/07/12 00:57:07;;;;;;;;;;;15.60;99.90;;;;;;5058576;28;19924;-82
2022/07/12 00:59:32;;;;;;;;;;;15.50;99.90;;;;;;5075375;28;20019;-82
2022/07/12 01:01:58;;;;;;;;;;;15.50;99.90;;;;;;5068919;28;19970;-82
2022/07/12 01:04:24;;;;;;;;;;;15.50;99.90;;;;;;5108839;28;20017;-82
2022/07/12 01:06:50;;;;;;;;;;;15.50;99.90;;;;;;5062054;28;19925;-82
2022/07/12 01:09:15;;;;;;;;;;;15.40;99.90;;;;;;5078829;28;20361;-83
2022/07/12 01:11:41;;;;;;;;;;;15.50;99.90;;;;;;5101096;28;19931;-83
2022/07/12 01:14:07;;;;;;;;;;;15.50;99.90;;;;;;5109489;28;19924;-82
2022/07/12 01:16:33;;;;;;;;;;;15.50;99.90;;;;;;5095420;28;20050;-82
2022/07/12 01:18:58;;;;;;;;;;;15.40;99.90;;;;;;5095643;28;19973;-82
2022/07/12 01:21:27;;;;;;;;;;;15.40;99.90;;;;;;5078540;28;19932;-82
2022/07/12 01:23:52;;;;;;;;;;;15.30;99.90;;;;;;5095355;28;20016;-82
2022/07/12 01:26:18;;;;;;;;;;;15.30;99.90;;;;;;5078055;28;19924;-82
2022/07/12 01:28:43;;;;;;;;;;;15.30;99.90;;;;;;5078659;28;19931;-82
2022/07/12 01:31:09;;;;;;;;;;;15.30;99.90;;;;;;5061716;28;19924;-82
2022/07/12 01:33:35;;;;;;;;;;;15.30;99.90;;;;;;5081822;28;19931;-82
2022/07/12 01:36:00;;;;;;;;;;;15.30;99.90;;;;;;5095324;28;20288;-82
2022/07/12 01:38:26;;;;;;;;;;;15.20;99.90;;;;;;5107395;28;20018;-82
2022/07/12 01:40:52;;;;;;;;;;;15.30;99.90;;;;;;5091234;28;20423;-82
2022/07/12 01:43:17;;;;;;;;;;;15.20;99.90;;;;;;5098294;28;19923;-82
2022/07/12 01:45:43;;;;;;;;;;;15.20;99.90;;;;;;5091401;28;19924;-83
2022/07/12 01:48:08;;;;;;;;;;;15.10;99.90;;;;;;5097507;28;20328;-83
2022/07/12 01:50:34;;;;;;;;;;;15.10;99.90;;;;;;5115024;28;19923;-82
2022/07/12 01:53:00;;;;;;;;;;;15.00;99.90;;;;;;5098475;28;19924;-82
2022/07/12 01:55:26;;;;;;;;;;;15.00;99.90;;;;;;5114865;28;19931;-82
2022/07/12 01:57:52;;;;;;;;;;;15.00;99.90;;;;;;5114378;28;19928;-83
2022/07/12 02:00:19;;;;;;;;;;;15.00;99.90;;;;;;5109377;28;19924;-83
2022/07/12 02:02:45;;;;;;;;;;;15.00;99.90;;;;;;5093956;28;20361;-83
2022/07/12 02:05:11;;;;;;;;;;;15.00;99.90;;;;;;5094706;28;20336;-83
2022/07/12 02:07:36;;;;;;;;;;;15.00;99.90;;;;;;5087417;28;20015;-82
2022/07/12 02:10:03;;;;;;;;;;;15.00;99.90;;;;;;5114803;28;19924;-82
2022/07/12 02:12:29;;;;;;;;;;;15.00;99.90;;;;;;5096473;28;19976;-82
2022/07/12 02:14:54;;;;;;;;;;;15.00;99.90;;;;;;5085598;28;19944;-85
2022/07/12 02:17:20;;;;;;;;;;;15.00;99.90;;;;;;5114547;28;19934;-84
2022/07/12 02:19:46;;;;;;;;;;;15.00;99.90;;;;;;5114954;28;19924;-84
2022/07/12 02:22:12;;;;;;;;;;;15.00;99.90;;;;;;5097808;28;19931;-85
2022/07/12 02:24:38;;;;;;;;;;;15.00;99.90;;;;;;5094302;28;19924;-84
2022/07/12 02:27:04;;;;;;;;;;;14.90;99.90;;;;;;5096120;28;19924;-84
2022/07/12 02:29:29;;;;;;;;;;;14.90;99.90;;;;;;5097418;28;20360;-84
2022/07/12 02:31:55;;;;;;;;;;;14.80;99.90;;;;;;5097495;28;19930;-85
2022/07/12 02:34:20;;;;;;;;;;;14.80;99.90;;;;;;5096958;28;19963;-84
2022/07/12 02:36:46;;;;;;;;;;;14.80;99.90;;;;;;5078919;28;19923;-85
2022/07/12 02:39:11;;;;;;;;;;;14.90;99.90;;;;;;5097589;28;19932;-86
2022/07/12 02:41:37;;;;;;;;;;;14.80;99.90;;;;;;5080350;28;19924;-85
2022/07/12 02:44:03;;;;;;;;;;;14.70;99.90;;;;;;5114347;28;19930;-86
2022/07/12 02:46:29;;;;;;;;;;;14.70;99.90;;;;;;5112894;28;19982;-86
2022/07/12 02:48:54;;;;;;;;;;;14.60;99.90;;;;;;5079261;28;19931;-86
2022/07/12 02:51:20;;;;;;;;;;;14.60;99.90;;;;;;5096960;28;19923;-86
2022/07/12 02:53:45;;;;;;;;;;;14.60;99.90;;;;;;5097415;28;19944;-86
2022/07/12 02:56:11;;;;;;;;;;;14.60;99.90;;;;;;5080502;28;20257;-86
2022/07/12 02:58:37;;;;;;;;;;;14.60;99.90;;;;;;5075864;28;19947;-86
2022/07/12 03:01:02;;;;;;;;;;;14.50;99.90;;;;;;5096800;28;19930;-87
2022/07/12 03:03:28;;;;;;;;;;;14.50;99.90;;;;;;5097113;28;19972;-86
2022/07/12 03:05:54;;;;;;;;;;;14.50;99.90;;;;;;5114028;28;19924;-86
2022/07/12 03:08:19;;;;;;;;;;;14.60;99.90;;;;;;5109473;28;19928;-86
2022/07/12 03:10:45;;;;;;;;;;;14.60;99.90;;;;;;5085847;28;20016;-86
2022/07/12 03:13:10;;;;;;;;;;;14.60;99.90;;;;;;5060031;28;19932;-86
2022/07/12 03:15:36;;;;;;;;;;;14.60;99.90;;;;;;5093385;28;20097;-85
2022/07/12 03:18:02;;;;;;;;;;;14.70;99.90;;;;;;5086111;28;19935;-86
2022/07/12 03:20:28;;;;;;;;;;;14.70;99.90;;;;;;5079778;28;19928;-85
2022/07/12 03:22:53;;;;;;;;;;;14.60;99.90;;;;;;5096760;28;19924;-86
2022/07/12 03:25:22;;;;;;;;;;;14.60;99.90;;;;;;5095629;28;19968;-85
2022/07/12 03:27:48;;;;;;;;;;;14.60;99.90;;;;;;5096168;28;19981;-86
2022/07/12 03:30:14;;;;;;;;;;;14.60;99.90;;;;;;5098060;28;19924;-85
2022/07/12 03:32:40;;;;;;;;;;;14.60;99.90;;;;;;5082449;28;19951;-87
2022/07/12 03:35:06;;;;;;;;;;;14.60;99.90;;;;;;5096728;28;20351;-86
2022/07/12 03:37:42;;;;;;;;;;;14.60;99.90;;;;;;5101559;28;19924;-85
2022/07/12 03:40:07;;;;;;;;;;;14.60;99.90;;;;;;5093170;28;19924;-85
2022/07/12 03:42:33;;;;;;;;;;;14.60;99.90;;;;;;5096974;28;19924;-91
2022/07/12 03:44:58;;;;;;;;;;;14.50;99.90;;;;;;5096037;28;19930;-85
2022/07/12 03:47:24;;;;;;;;;;;14.40;99.90;;;;;;5095685;28;19924;-86
2022/07/12 03:49:50;;;;;;;;;;;14.40;99.90;;;;;;5096368;28;19930;-85
2022/07/12 03:52:15;;;;;;;;;;;14.40;99.90;;;;;;5079491;28;19924;-86
2022/07/12 03:54:41;;;;;;;;;;;14.30;99.90;;;;;;5078762;28;20018;-87
2022/07/12 03:57:15;;;;;;;;;;;14.30;99.90;;;;;;5096238;28;19949;-86
2022/07/12 03:59:41;;;;;;;;;;;14.30;99.90;;;;;;5096076;28;20367;-86
2022/07/12 04:02:07;;;;;;;;;;;14.30;99.90;;;;;;5113198;28;20018;-86
2022/07/12 04:04:33;;;;;;;;;;;14.30;99.90;;;;;;5095382;28;20366;-85
2022/07/12 04:06:58;;;;;;;;;;;14.30;99.90;;;;;;5096037;28;19975;-86
2022/07/12 04:09:24;;;;;;;;;;;14.30;99.90;;;;;;5113041;28;20364;-86
2022/07/12 04:11:49;;;;;;;;;;;14.30;99.90;;;;;;5096117;28;19924;-85
2022/07/12 04:14:15;;;;;;;;;;;14.30;99.90;;;;;;5109642;28;19931;-85
2022/07/12 04:16:41;;;;;;;;;;;14.30;99.90;;;;;;5091491;28;20376;-86
2022/07/12 04:19:08;;;;;;;;;;;14.40;99.90;;;;;;5059740;28;19959;-85
2022/07/12 04:21:35;;;;;;;;;;;14.40;99.90;;;;;;5075764;28;19924;-86
2022/07/12 04:24:00;;;;;;;;;;;14.50;99.90;;;;;;5097516;28;19931;-85
2022/07/12 04:26:26;;;;;;;;;;;14.50;99.90;;;;;;5079166;28;19927;-86
2022/07/12 04:28:51;;;;;;;;;;;14.40;99.90;;;;;;5096078;28;19924;-86
2022/07/12 04:31:17;;;;;;;;;;;14.50;99.90;;;;;;5075570;28;19924;-85
2022/07/12 04:33:42;;;;;;;;;;;14.50;99.90;;;;;;5092405;28;20267;-86
2022/07/12 04:36:08;;;;;;;;;;;14.60;99.90;;;;;;5111104;28;20355;-86
2022/07/12 04:38:34;;;;;;;;;;;14.50;99.90;;;;;;5079459;28;19928;-85
2022/07/12 04:40:59;;;;;;;;;;;14.60;99.90;;;;;;5085509;28;19955;-85
2022/07/12 04:43:25;;;;;;;;;;;14.60;99.90;;;;;;5062449;28;19924;-85
2022/07/12 04:45:51;;;;;;;;;;;14.60;99.90;;;;;;5089279;28;19965;-83
2022/07/12 04:48:16;;;;;;;;;;;14.60;99.90;;;;;;5079357;28;19924;-83
2022/07/12 04:50:42;;;;;;;;;;;14.60;99.90;;;;;;5095416;28;20368;-82
2022/07/12 04:53:08;;;;;;;;;;;14.60;99.90;;;;;;5079526;28;19924;-82
2022/07/12 04:55:34;;;;;;;;;;;14.60;99.90;;;;;;5087371;28;19988;-82
2022/07/12 04:57:59;;;;;;;;;;;14.60;99.90;;;;;;5100009;28;20386;-82
2022/07/12 05:00:25;;;;;;;;;;;14.60;99.90;;;;;;5116437;28;20283;-82
2022/07/12 05:02:50;;;;;;;;;;;14.60;99.90;;;;;;5097188;28;19981;-82
2022/07/12 05:05:16;;;;;;;;;;;14.60;99.90;;;;;;5099071;28;20370;-82
2022/07/12 05:07:41;;;;;;;;;;;14.70;99.90;;;;;;5081969;28;20432;-82
2022/07/12 05:10:07;;;;;;;;;;;14.70;99.90;;;;;;5116457;28;19988;-82
2022/07/12 05:12:36;;;;;;;;;;;14.80;99.90;;;;;;5079997;28;20355;-82
2022/07/12 05:15:03;;;;;;;;;;;14.80;99.90;;;;;;5098981;28;19930;-82
2022/07/12 05:17:28;;;;;;;;;;;14.80;99.90;;;;;;5098950;28;19924;-82
2022/07/12 05:19:55;;;;;;;;;;;14.80;99.90;;;;;;5082009;28;19924;-82
2022/07/12 05:22:20;;;;;;;;;;;14.90;99.90;;;;;;5098217;28;19935;-82
2022/07/12 05:24:46;;;;;;;;;;;14.90;99.90;;;;;;5079017;28;19924;-81
2022/07/12 05:27:11;;;;;;;;;;;14.90;99.90;;;;;;5088557;28;19924;-82
2022/07/12 05:29:37;;;;;;;;;;;14.90;99.90;;;;;;5095472;28;20022;-82
2022/07/12 05:32:03;;;;;;;;;;;15.00;99.90;;;;;;5078431;28;20394;-82
2022/07/12 05:34:29;;;;;;;;;;;15.00;99.90;;;;;;5062840;28;20368;-82
2022/07/12 05:36:55;;;;;;;;;;;15.00;99.90;;;;;;5083831;28;19934;-82
2022/07/12 05:39:20;;;;;;;;;;;15.00;99.90;;;;;;5072946;28;19935;-82
2022/07/12 05:41:49;;;;;;;;;;;15.10;99.90;;;;;;5081633;28;19924;-82
2022/07/12 05:44:20;;;;;;;;;;;15.10;99.90;;;;;;5098816;28;19935;-82
2022/07/12 05:46:46;;;;;;;;;;;15.20;99.90;;;;;;5096084;28;19931;-82
2022/07/12 05:49:11;;;;;;;;;;;15.20;99.90;;;;;;5081103;28;19924;-82
2022/07/12 05:54:21;;;;;;;;;;;15.40;99.90;;;;;;5100471;28;19924;-82
2022/07/12 05:56:48;;;;;;;;;;;15.40;99.90;;;;;;5096133;28;19969;-82
2022/07/12 05:59:13;;;;;;;;;;;15.40;99.90;;;;;;5113185;28;19949;-82
2022/07/12 06:01:39;;;;;;;;;;;15.50;99.90;;;;;;5084743;28;19924;-83
2022/07/12 06:04:04;;;;;;;;;;;15.50;99.90;;;;;;5114464;28;19938;-81
2022/07/12 06:06:30;;;;;;;;;;;15.60;99.90;;;;;;5081155;28;19923;-81
2022/07/12 06:08:56;;;;;;;;;;;15.70;99.90;;;;;;5105962;28;19930;-79
2022/07/12 06:11:21;;;;;;;;;;;15.80;99.90;;;;;;5094629;28;19924;-81
2022/07/12 06:13:47;;;;;;;;;;;15.80;99.90;;;;;;5094458;28;19924;-80
2022/07/12 06:16:12;;;;;;;;;;;16.00;99.90;;;;;;5106892;28;20000;-81
2022/07/12 06:18:38;;;;;;;;;;;16.10;99.90;;;;;;5093760;28;20432;-82
2022/07/12 06:21:04;;;;;;;;;;;16.10;99.90;;;;;;5101619;28;19931;-81
2022/07/12 06:23:30;;;;;;;;;;;16.30;99.90;;;;;;5111040;28;20409;-81
2022/07/12 06:25:55;;;;;;;;;;;16.40;99.90;;;;;;5106277;28;19931;-82
2022/07/12 06:28:21;;;;;;;;;;;16.50;99.90;;;;;;5110316;28;19924;-81
2022/07/12 06:30:47;;;;;;;;;;;16.50;99.90;;;;;;5080631;28;20001;-81
2022/07/12 06:33:12;;;;;;;;;;;16.50;99.90;;;;;;5111181;28;19925;-81
2022/07/12 06:35:38;;;;;;;;;;;16.60;99.90;;;;;;5086449;28;20260;-81
2022/07/12 06:38:03;;;;;;;;;;;16.60;99.90;;;;;;5088926;28;19923;-81
2022/07/12 06:40:29;;;;;;;;;;;16.80;99.90;;;;;;5093402;28;19963;-81
2022/07/12 06:42:54;;;;;;;;;;;16.80;99.90;;;;;;5061561;28;19931;-87
2022/07/12 06:45:20;;;;;;;;;;;16.90;99.90;;;;;;5087886;28;20303;-82
2022/07/12 06:47:45;;;;;;;;;;;17.00;99.90;;;;;;5094475;28;19936;-81
2022/07/12 06:50:11;;;;;;;;;;;17.20;99.90;;;;;;5076886;28;20014;-82
2022/07/12 06:52:37;;;;;;;;;;;17.30;99.90;;;;;;5065945;28;19967;-82
2022/07/12 06:55:03;;;;;;;;;;;17.40;99.90;;;;;;5113960;28;20009;-82
2022/07/12 06:57:33;;;;;;;;;;;17.50;99.90;;;;;;5096716;28;19923;-81
2022/07/12 06:59:59;;;;;;;;;;;17.60;99.90;;;;;;5096501;28;19931;-82
2022/07/12 07:02:24;;;;;;;;;;;17.80;99.90;;;;;;5097051;28;20268;-81
2022/07/12 07:04:50;;;;;;;;;;;18.00;99.90;;;;;;5109311;28;19924;-82
2022/07/12 07:07:16;;;;;;;;;;;18.00;99.90;;;;;;5096829;28;19924;-82
2022/07/12 07:09:41;;;;;;;;;;;18.20;99.90;;;;;;5096186;28;19923;-80
2022/07/12 07:12:07;;;;;;;;;;;18.20;99.90;;;;;;5108068;28;19995;-80
2022/07/12 07:14:33;;;;;;;;;;;18.20;99.90;;;;;;5076225;28;19924;-81
2022/07/12 07:16:59;;;;;;;;;;;18.30;99.90;;;;;;5075886;28;19924;-81
2022/07/12 07:19:26;;;;;;;;;;;18.30;99.90;;;;;;5109713;28;20417;-81
2022/07/12 07:21:51;;;;;;;;;;;18.40;99.90;;;;;;5076018;28;20283;-81
2022/07/12 07:24:17;;;;;;;;;;;18.50;99.90;;;;;;5076409;28;19924;-81
2022/07/12 07:26:43;;;;;;;;;;;18.50;99.90;;;;;;5093201;28;19924;-81
2022/07/12 07:31:52;;;;;;;;;;;18.60;99.90;;;;;;5098978;28;19924;-81
2022/07/12 07:34:18;;;;;;;;;;;18.70;99.90;;;;;;5113116;28;19973;-80
2022/07/12 07:36:44;;;;;;;;;;;18.80;99.90;;;;;;5105018;28;19928;-81
2022/07/12 07:39:09;;;;;;;;;;;18.80;99.90;;;;;;5066119;28;20466;-81
2022/07/12 07:41:35;;;;;;;;;;;18.80;99.90;;;;;;5111900;28;19946;-81
2022/07/12 07:44:01;;;;;;;;;;;18.80;99.90;;;;;;5095979;28;19935;-82
2022/07/12 07:46:26;;;;;;;;;;;18.90;99.90;;;;;;5095363;28;19963;-83
2022/07/12 07:48:52;;;;;;;;;;;18.90;99.90;;;;;;5095148;28;20375;-82
2022/07/12 07:51:18;;;;;;;;;;;19.00;99.90;;;;;;5078802;28;19931;-82
2022/07/12 07:53:44;;;;;;;;;;;19.00;99.90;;;;;;5096314;28;19923;-80
2022/07/12 07:56:09;;;;;;;;;;;18.90;99.90;;;;;;5095555;28;19930;-80
2022/07/12 07:58:35;;;;;;;;;;;19.00;99.90;;;;;;5095980;28;20018;-81
2022/07/12 08:01:00;;;;;;;;;;;19.10;99.90;;;;;;5107043;28;19928;-80
2022/07/12 08:03:26;;;;;;;;;;;19.20;99.90;;;;;;5062156;28;19923;-81
2022/07/12 08:05:52;;;;;;;;;;;19.20;99.90;;;;;;5096094;28;19924;-82
2022/07/12 08:08:18;;;;;;;;;;;19.30;99.90;;;;;;5094310;28;19924;-84
2022/07/12 08:10:44;;;;;;;;;;;19.40;99.90;;;;;;5083251;28;20429;-81
2022/07/12 08:13:09;;;;;;;;;;;19.60;99.90;;;;;;5091491;28;19932;-82
2022/07/12 08:15:35;;;;;;;;;;;19.70;99.90;;;;;;5093105;28;19923;-82
2022/07/12 08:18:01;;;;;;;;;;;19.80;99.90;;;;;;5083109;28;19928;-88
2022/07/12 08:20:26;;;;;;;;;;;19.90;99.90;;;;;;5101846;28;19931;-89
2022/07/12 08:22:52;;;;;;;;;;;19.90;99.90;;;;;;5093858;28;19975;-85
2022/07/12 08:25:18;;;;;;;;;;;19.90;99.90;;;;;;5112476;28;19931;-79
2022/07/12 08:27:43;;;;;;;;;;;19.90;99.90;;;;;;5083896;28;20382;-82
2022/07/12 08:30:10;;;;;;;;;;;20.10;99.90;;;;;;5112372;28;19924;-81
2022/07/12 08:32:36;;;;;;;;;;;20.20;99.90;;;;;;5076592;28;20445;-84
2022/07/12 08:35:02;;;;;;;;;;;20.30;99.90;;;;;;5091306;28;19928;-83
2022/07/12 08:37:27;;;;;;;;;;;20.40;99.90;;;;;;5077987;28;20028;-84
2022/07/12 08:39:53;;;;;;;;;;;20.50;99.90;;;;;;5075322;28;20217;-83
2022/07/12 08:42:18;;;;;;;;;;;20.60;99.90;;;;;;5070287;28;19924;-83
2022/07/12 08:44:44;;;;;;;;;;;20.60;99.90;;;;;;5074837;28;19977;-85
2022/07/12 08:47:10;;;;;;;;;;;20.70;99.90;;;;;;5090897;28;19923;-85
2022/07/12 08:49:36;;;;;;;;;;;20.80;99.90;;;;;;5078982;28;19928;-85
2022/07/12 08:52:21;;;;;;;;;;;20.90;99.90;;;;;;5078003;28;19924;-84
2022/07/12 08:54:46;;;;;;;;;;;21.00;99.90;;;;;;5084416;28;20336;-83
2022/07/12 08:57:27;;;;;;;;;;;21.20;99.90;;;;;;5075161;28;19974;-85
2022/07/12 08:59:58;;;;;;;;;;;21.40;99.90;;;;;;5092407;28;19924;-83
2022/07/12 09:02:24;;;;;;;;;;;21.60;99.90;;;;;;5095302;28;19930;-85
2022/07/12 09:05:05;;;;;;;;;;;21.80;99.90;;;;;;5093551;28;19927;-85
2022/07/12 09:07:34;;;;;;;;;;;22.00;99.90;;;;;;5111696;28;20345;-85
2022/07/12 09:10:02;;;;;;;;;;;22.20;99.90;;;;;;5092960;28;19927;-88
2022/07/12 09:12:27;;;;;;;;;;;22.20;99.90;;;;;;5099328;28;19976;-87
2022/07/12 09:14:53;;;;;;;;;;;22.30;99.90;;;;;;5111255;28;19928;-87
2022/07/12 09:17:21;;;;;;;;;;;22.40;99.90;;;;;;5096901;28;19923;-86
2022/07/12 09:19:57;;;;;;;;;;;22.30;99.90;;;;;;5114412;28;19927;-85
2022/07/12 09:22:22;;;;;;;;;;;22.50;99.90;;;;;;5071711;28;20132;-85
2022/07/12 09:24:48;;;;;;;;;;;22.50;99.90;;;;;;5109512;27;20287;-85
2022/07/12 09:27:14;;;;;;;;;;;22.60;99.90;;;;;;5132651;27;19934;-86
2022/07/12 09:29:46;;;;;;;;;;;22.70;99.90;;;;;;5127824;27;19977;-84
2022/07/12 09:37:40;;;;;;;;;;;22.90;99.90;;;;;;5099748;28;20358;-83
2022/07/12 09:40:09;;;;;;;;;;;22.90;99.90;;;;;;5095378;28;19924;-85
2022/07/12 09:42:34;;;;;;;;;;;22.90;99.90;;;;;;5114794;27;19928;-84
2022/07/12 09:45:00;;;;;;;;;;;23.10;99.90;;;;;;5089199;28;20436;-87
2022/07/12 09:47:26;;;;;;;;;;;23.20;99.90;;;;;;5144130;27;19927;-83
2022/07/12 09:49:52;;;;;;;;;;;23.20;99.90;;;;;;5142424;27;19923;-84
2022/07/12 09:52:21;;;;;;;;;;;23.30;99.90;;;;;;5126989;27;20252;-88
2022/07/12 09:54:49;;;;;;;;;;;23.50;99.90;;;;;;5136726;27;20443;-86
2022/07/12 09:57:25;;;;;;;;;;;23.80;99.90;;;;;;5134587;27;20377;-87
2022/07/12 09:59:52;;;;;;;;;;;23.80;99.90;;;;;;5142566;27;20125;-85
2022/07/12 10:02:18;;;;;;;;;;;23.80;99.90;;;;;;5097954;28;19985;-86
2022/07/12 10:04:45;;;;;;;;;;;23.90;99.90;;;;;;5150237;27;20387;-91
2022/07/12 10:07:14;;;;;;;;;;;23.90;99.90;;;;;;5154198;27;20419;-86
2022/07/12 10:09:44;;;;;;;;;;;24.00;99.90;;;;;;5133990;27;20010;-87
2022/07/12 10:12:10;;;;;;;;;;;24.10;99.90;;;;;;5120917;27;19945;-86
2022/07/12 10:14:37;;;;;;;;;;;24.30;99.90;;;;;;5153003;27;19946;-89
2022/07/12 10:17:03;;;;;;;;;;;24.30;99.90;;;;;;5153864;27;20021;-85
2022/07/12 10:19:31;;;;;;;;;;;24.50;99.90;;;;;;5134116;27;20031;-84
2022/07/12 10:21:57;;;;;;;;;;;24.70;99.90;;;;;;5114547;27;19928;-85
2022/07/12 10:24:32;;;;;;;;;;;24.90;99.90;;;;;;5139434;27;19976;-82
2022/07/12 10:27:13;;;;;;;;;;;25.00;99.90;;;;;;5135552;27;19939;-81
2022/07/12 10:29:45;;;;;;;;;;;25.00;99.90;;;;;;5136439;27;20008;-85
2022/07/12 10:32:32;;;;;;;;;;;25.20;99.90;;;;;;5127207;27;20462;-91
2022/07/12 10:34:58;;;;;;;;;;;25.30;99.90;;;;;;5107543;27;19930;-81
2022/07/12 10:37:24;;;;;;;;;;;25.30;99.90;;;;;;5113206;27;19930;-80
2022/07/12 10:40:09;;;;;;;;;;;25.20;99.90;;;;;;5109992;27;19924;-82
2022/07/12 10:42:34;;;;;;;;;;;25.00;99.90;;;;;;5133319;27;19958;-80
2022/07/12 10:45:12;;;;;;;;;;;24.90;99.90;;;;;;5129297;27;19973;-81
2022/07/12 10:47:54;;;;;;;;;;;24.90;99.90;;;;;;5115700;27;19923;-80
2022/07/12 10:50:19;;;;;;;;;;;24.80;99.90;;;;;;5113546;27;19931;-79
2022/07/12 10:52:45;;;;;;;;;;;24.70;99.90;;;;;;5114632;27;19924;-80
2022/07/12 10:55:13;;;;;;;;;;;24.90;99.90;;;;;;5097676;27;19927;-80
2022/07/12 10:57:40;;;;;;;;;;;25.20;99.90;;;;;;5116069;27;19928;-79
2022/07/12 11:00:08;;;;;;;;;;;25.40;99.90;;;;;;5129654;27;19934;-79
2022/07/12 11:02:33;;;;;;;;;;;25.70;99.90;;;;;;5124596;27;19943;-81
2022/07/12 11:04:59;;;;;;;;;;;25.80;99.90;;;;;;5153086;27;19929;-82
2022/07/12 11:07:25;;;;;;;;;;;25.90;99.90;;;;;;5133808;27;20033;-80
2022/07/12 11:09:52;;;;;;;;;;;26.00;99.90;;;;;;5141222;27;19931;-80
2022/07/12 11:12:17;;;;;;;;;;;26.20;99.90;;;;;;5100423;27;19971;-82
2022/07/12 11:14:44;;;;;;;;;;;26.40;99.90;;;;;;5115841;27;20031;-82
2022/07/12 11:17:10;;;;;;;;;;;26.60;99.90;;;;;;5115979;27;19930;-81
2022/07/12 11:19:36;;;;;;;;;;;26.70;99.90;;;;;;5114981;27;19935;-81
2022/07/12 11:22:01;;;;;;;;;;;26.60;99.90;;;;;;5137637;27;19927;-92
2022/07/12 11:24:28;;;;;;;;;;;26.50;99.90;;;;;;5130922;27;20368;-80
2022/07/12 11:26:54;;;;;;;;;;;26.50;99.90;;;;;;5113903;27;20399;-81
2022/07/12 11:29:20;;;;;;;;;;;26.40;99.90;;;;;;5113545;27;19928;-81
2022/07/12 11:31:46;;;;;;;;;;;26.50;99.90;;;;;;5114297;27;19927;-81
2022/07/12 11:34:24;;;;;;;;;;;26.70;99.90;;;;;;5120353;27;19975;-80
2022/07/12 11:36:51;;;;;;;;;;;26.90;99.90;;;;;;5151579;27;19927;-81
2022/07/12 11:39:16;;;;;;;;;;;27.20;99.90;;;;;;5140983;27;19931;-79
2022/07/12 11:41:54;;;;;;;;;;;27.40;99.90;;;;;;5108365;27;20382;-81
2022/07/12 11:44:19;;;;;;;;;;;27.80;99.90;;;;;;5132139;27;19923;-82
2022/07/12 11:46:49;;;;;;;;;;;28.30;99.90;;;;;;5115975;27;19938;-82
2022/07/12 11:49:15;;;;;;;;;;;28.60;99.90;;;;;;5131503;27;20004;-80
2022/07/12 11:51:40;;;;;;;;;;;28.70;99.90;;;;;;5125618;27;20363;-83
2022/07/12 11:54:06;;;;;;;;;;;28.80;99.90;;;;;;5118957;27;20037;-82
2022/07/12 11:56:32;;;;;;;;;;;28.90;99.90;;;;;;5113530;27;19949;-83
2022/07/12 11:58:58;;;;;;;;;;;28.70;99.70;;;;;;5113899;27;19934;-83
2022/07/12 12:01:25;;;;;;;;;;;28.60;99.90;;;;;;5119744;27;20371;-84
2022/07/12 12:03:51;;;;;;;;;;;28.60;99.90;;;;;;5130748;27;20038;-84
2022/07/12 12:06:17;;;;;;;;;;;28.80;99.90;;;;;;5133601;27;19923;-82
2022/07/12 12:08:44;;;;;;;;;;;28.90;99.90;;;;;;5133959;27;19923;-83
2022/07/12 12:11:10;;;;;;;;;;;29.20;99.00;;;;;;5130102;27;19927;-85
2022/07/12 12:13:36;;;;;;;;;;;29.50;99.50;;;;;;5130738;28;20348;-86
2022/07/12 12:16:03;;;;;;;;;;;29.90;99.40;;;;;;5124235;27;19927;-84
2022/07/12 12:18:36;;;;;;;;;;;30.10;96.90;;;;;;5125432;28;19928;-84
2022/07/12 12:21:05;;;;;;;;;;;30.20;93.60;;;;;;5131171;27;19979;-83
2022/07/12 12:23:31;;;;;;;;;;;30.40;97.30;;;;;;5114500;27;20338;-83
2022/07/12 12:26:09;;;;;;;;;;;30.70;95.60;;;;;;5146842;27;19930;-83
2022/07/12 12:28:41;;;;;;;;;;;30.60;95.60;;;;;;5151157;27;19927;-83
2022/07/12 12:31:08;;;;;;;;;;;30.40;98.00;;;;;;5151285;27;20283;-82
2022/07/12 12:33:38;;;;;;;;;;;30.00;93.70;;;;;;5131641;27;19927;-82
2022/07/12 12:36:19;;;;;;;;;;;29.90;98.10;;;;;;5115363;28;19927;-80
2022/07/12 12:38:45;;;;;;;;;;;29.70;96.50;;;;;;5108912;27;19927;-80
2022/07/12 12:41:11;;;;;;;;;;;29.60;96.80;;;;;;5116535;28;19931;-80
2022/07/12 12:43:38;;;;;;;;;;;29.30;95.80;;;;;;5108013;28;19927;-81
2022/07/12 12:46:03;;;;;;;;;;;29.10;98.50;;;;;;5137210;27;20315;-81
2022/07/12 12:48:30;;;;;;;;;;;28.90;99.90;;;;;;5110059;28;20391;-78
2022/07/12 12:51:05;;;;;;;;;;;28.70;99.90;;;;;;5120994;27;19980;-78
2022/07/12 12:53:31;;;;;;;;;;;28.60;99.90;;;;;;5115527;27;20386;-78
2022/07/12 12:55:56;;;;;;;;;;;28.60;99.90;;;;;;5154390;27;19929;-79
2022/07/12 12:58:23;;;;;;;;;;;28.40;99.90;;;;;;5141070;27;19927;-80
2022/07/12 13:00:50;;;;;;;;;;;28.30;99.90;;;;;;5137580;27;19927;-79
2022/07/12 13:03:17;;;;;;;;;;;28.00;99.90;;;;;;5120193;27;19927;-78
2022/07/12 13:05:43;;;;;;;;;;;27.90;99.90;;;;;;5120433;27;19927;-78
2022/07/12 13:08:09;;;;;;;;;;;27.80;99.90;;;;;;5136004;27;19950;-78
2022/07/12 13:10:36;;;;;;;;;;;27.70;99.90;;;;;;5119991;27;20289;-80
2022/07/12 13:13:02;;;;;;;;;;;27.70;99.90;;;;;;5119747;27;19938;-77
2022/07/12 13:15:28;;;;;;;;;;;27.60;99.90;;;;;;5125807;27;19934;-83
2022/07/12 13:17:53;;;;;;;;;;;27.50;99.90;;;;;;5086881;27;19923;-79
2022/07/12 13:20:19;;;;;;;;;;;27.50;99.90;;;;;;5099603;27;19956;-80
2022/07/12 13:22:45;;;;;;;;;;;27.70;99.90;;;;;;5126827;27;19934;-79
2022/07/12 13:25:12;;;;;;;;;;;27.90;99.90;;;;;;5119721;27;20456;-81
2022/07/12 13:27:38;;;;;;;;;;;27.90;99.90;;;;;;5116722;27;20026;-86
2022/07/12 13:30:06;;;;;;;;;;;28.10;99.90;;;;;;5125208;27;19955;-87
2022/07/12 13:32:32;;;;;;;;;;;28.30;99.90;;;;;;5118186;27;19976;-88
2022/07/12 13:34:59;;;;;;;;;;;28.10;99.90;;;;;;5134310;27;19928;-85
2022/07/12 13:37:25;;;;;;;;;;;28.20;99.90;;;;;;5100187;27;19978;-84
2022/07/12 13:42:35;;;;;;;;;;;28.20;99.90;;;;;;5118227;27;20006;-85
2022/07/12 13:45:00;;;;;;;;;;;28.10;99.90;;;;;;5121600;27;20414;-86
2022/07/12 13:47:26;;;;;;;;;;;28.20;99.90;;;;;;5136190;27;19934;-86
2022/07/12 13:49:52;;;;;;;;;;;28.10;99.90;;;;;;5135627;27;20277;-83
2022/07/12 13:52:18;;;;;;;;;;;27.80;99.90;;;;;;5114945;27;19934;-87
2022/07/12 13:54:44;;;;;;;;;;;27.40;99.90;;;;;;5114526;27;20282;-83
2022/07/12 13:57:10;;;;;;;;;;;27.00;99.90;;;;;;5100631;27;19923;-88
2022/07/12 13:59:36;;;;;;;;;;;26.70;99.90;;;;;;5119733;27;20003;-85
2022/07/12 14:02:02;;;;;;;;;;;26.60;99.90;;;;;;5108046;27;20298;-87
2022/07/12 14:04:27;;;;;;;;;;;26.40;99.90;;;;;;5125657;27;19927;-86
2022/07/12 14:06:53;;;;;;;;;;;26.50;99.90;;;;;;5118552;27;19957;-87
2022/07/12 14:09:19;;;;;;;;;;;26.60;99.90;;;;;;5138429;27;19923;-85
2022/07/12 14:11:44;;;;;;;;;;;26.60;99.90;;;;;;5125726;27;19924;-88
2022/07/12 14:14:10;;;;;;;;;;;26.70;99.90;;;;;;5132741;27;20383;-90
2022/07/12 14:16:36;;;;;;;;;;;26.60;99.90;;;;;;5114056;27;20052;-86
2022/07/12 14:19:01;;;;;;;;;;;26.50;99.90;;;;;;5118226;27;19931;-84
2022/07/12 14:21:30;;;;;;;;;;;26.30;99.90;;;;;;5118671;27;19976;-86
2022/07/12 14:23:55;;;;;;;;;;;26.00;99.90;;;;;;5130265;27;19924;-86
2022/07/12 14:26:21;;;;;;;;;;;25.70;99.90;;;;;;5098755;27;19952;-88